Time;durP1;ratioP1;P1;durP2;ratioP2;P2;SDS_P1;SDS_P2;PMS_P1;PMS_P2;Temp;Humidity;BMP_temperature;BMP_pressure;BME280_temperature;BME280_humidity;BME280_pressure;Samples;Min_cycle;Max_cycle;Signal;HPM_P1;HPM_P2
2023/03/24 00:01:52;;;;;;;7.07;3.00;;;;;;;12.36;100.00;99814.25;6234085;22;20030;-70
2023/03/24 00:04:18;;;;;;;9.45;3.17;;;;;;;12.32;100.00;99801.28;6261449;22;20080;-69
2023/03/24 00:06:43;;;;;;;5.40;3.28;;;;;;;12.31;100.00;99799.59;6261276;22;20020;-69
2023/03/24 00:09:09;;;;;;;9.82;2.80;;;;;;;12.35;100.00;99801.00;6261155;22;20110;-71
2023/03/24 00:11:35;;;;;;;9.75;3.25;;;;;;;12.28;100.00;99799.84;6233383;22;20007;-70
2023/03/24 00:14:04;;;;;;;9.00;2.92;;;;;;;12.37;100.00;99793.69;6233281;22;20026;-70
2023/03/24 00:16:29;;;;;;;10.73;3.58;;;;;;;12.34;100.00;99783.25;6233888;22;20016;-69
2023/03/24 00:18:55;;;;;;;7.75;3.13;;;;;;;12.29;100.00;99788.16;6261225;22;20022;-71
2023/03/24 00:21:24;;;;;;;6.70;3.20;;;;;;;12.25;100.00;99784.94;6261117;22;20022;-69
2023/03/24 00:23:53;;;;;;;15.38;3.55;;;;;;;12.28;100.00;99775.78;6261591;22;20622;-71
2023/03/24 00:26:19;;;;;;;7.35;3.33;;;;;;;12.44;100.00;99771.63;6261723;22;20019;-69
2023/03/24 00:28:47;;;;;;;12.35;3.33;;;;;;;12.32;100.00;99769.19;6261381;22;20016;-69
2023/03/24 00:31:14;;;;;;;9.52;3.50;;;;;;;12.35;100.00;99772.47;6261024;22;20020;-71
2023/03/24 00:33:41;;;;;;;11.60;3.60;;;;;;;12.35;100.00;99763.56;6207498;22;20050;-69
2023/03/24 00:36:12;;;;;;;12.52;3.67;;;;;;;12.46;100.00;99758.13;6259956;22;20365;-70
2023/03/24 00:38:40;;;;;;;7.70;3.65;;;;;;;12.35;100.00;99747.53;6260018;22;20019;-69
2023/03/24 00:41:07;;;;;;;5.18;3.67;;;;;;;12.42;100.00;99749.53;6257735;22;20528;-69
2023/03/24 00:43:33;;;;;;;9.88;3.83;;;;;;;12.51;100.00;99755.06;6260182;22;20310;-69
2023/03/24 00:46:00;;;;;;;5.10;2.97;;;;;;;12.47;100.00;99750.97;6232569;22;20019;-71
2023/03/24 00:48:27;;;;;;;7.10;3.45;;;;;;;12.37;100.00;99734.88;6260287;22;20043;-71
2023/03/24 00:50:53;;;;;;;7.78;4.00;;;;;;;12.38;100.00;99744.59;6233568;22;20037;-70
2023/03/24 00:53:19;;;;;;;10.88;3.22;;;;;;;12.40;100.00;99738.13;6233183;22;20433;-71
2023/03/24 00:55:48;;;;;;;7.18;3.75;;;;;;;12.53;100.00;99737.03;6261041;22;20015;-69
2023/03/24 00:58:16;;;;;;;7.38;3.72;;;;;;;12.41;100.00;99745.16;6233334;22;20023;-69
2023/03/24 01:00:47;;;;;;;17.30;4.43;;;;;;;12.45;100.00;99737.72;6233552;22;20026;-70
2023/03/24 01:03:13;;;;;;;7.38;3.45;;;;;;;12.46;100.00;99730.56;6258817;22;20093;-69
2023/03/24 01:05:40;;;;;;;9.05;3.45;;;;;;;12.50;100.00;99727.47;6260903;22;20012;-70
2023/03/24 01:08:09;;;;;;;5.45;3.03;;;;;;;12.53;100.00;99724.50;6233631;22;20015;-70
2023/03/24 01:10:51;;;;;;;9.13;3.83;;;;;;;12.49;100.00;99717.75;6234056;22;20057;-70
2023/03/24 01:13:22;;;;;;;5.82;3.17;;;;;;;12.61;100.00;99719.34;6233388;22;20032;-70
2023/03/24 01:15:48;;;;;;;7.63;3.67;;;;;;;12.40;100.00;99707.88;6261101;22;20039;-70
2023/03/24 01:18:14;;;;;;;6.20;3.38;;;;;;;12.63;100.00;99703.13;6233948;22;20080;-69
2023/03/24 01:20:45;;;;;;;10.20;4.25;;;;;;;12.59;100.00;99705.22;6261340;22;20020;-70
2023/03/24 01:23:13;;;;;;;7.82;3.70;;;;;;;12.61;100.00;99703.28;6261039;22;20022;-69
2023/03/24 01:25:44;;;;;;;6.43;4.05;;;;;;;12.63;100.00;99701.31;6209417;22;20037;-71
2023/03/24 01:28:22;;;;;;;8.07;3.63;;;;;;;12.63;100.00;99697.78;6261680;22;20031;-69
2023/03/24 01:30:48;;;;;;;8.98;3.90;;;;;;;12.69;100.00;99691.88;6262198;22;20042;-69
2023/03/24 01:33:13;;;;;;;7.95;3.42;;;;;;;12.65;100.00;99691.34;6235804;22;20020;-69
2023/03/24 01:35:39;;;;;;;9.73;3.78;;;;;;;12.70;100.00;99678.38;6235210;22;20027;-71
2023/03/24 01:38:09;;;;;;;6.45;3.47;;;;;;;12.63;100.00;99671.88;6262935;22;20015;-70
2023/03/24 01:40:38;;;;;;;6.18;3.60;;;;;;;12.69;100.00;99675.81;6263289;22;20479;-69
2023/03/24 01:43:06;;;;;;;6.47;3.47;;;;;;;12.75;100.00;99666.41;6263087;22;20031;-70
2023/03/24 01:45:37;;;;;;;5.22;3.50;;;;;;;12.68;100.00;99658.09;6263145;22;20022;-69
2023/03/24 01:48:04;;;;;;;6.40;3.05;;;;;;;12.70;100.00;99658.78;6262984;22;20349;-70
2023/03/24 01:50:31;;;;;;;9.48;3.67;;;;;;;12.74;100.00;99651.34;6234811;22;20069;-68
2023/03/24 01:52:57;;;;;;;6.38;3.83;;;;;;;12.72;100.00;99647.97;6235317;22;20019;-69
2023/03/24 01:55:23;;;;;;;10.88;4.40;;;;;;;12.73;100.00;99650.50;6235311;22;20027;-70
2023/03/24 01:57:55;;;;;;;7.55;4.20;;;;;;;12.74;100.00;99638.81;6210508;22;20027;-68
2023/03/24 02:00:24;;;;;;;4.45;3.28;;;;;;;12.70;100.00;99640.94;6235012;22;20070;-69
2023/03/24 02:03:24;;;;;;;5.45;3.50;;;;;;;12.59;100.00;99640.22;6236462;22;20024;-69
2023/03/24 02:05:56;;;;;;;9.23;4.57;;;;;;;12.66;100.00;99633.34;6235129;22;20059;-70
2023/03/24 02:08:36;;;;;;;5.90;3.80;;;;;;;12.68;100.00;99634.03;6235298;22;20326;-70
2023/03/24 02:11:02;;;;;;;8.13;3.50;;;;;;;12.67;100.00;99624.31;6262643;22;20022;-70
2023/03/24 02:13:36;;;;;;;4.22;3.45;;;;;;;12.66;100.00;99623.47;6234790;22;20028;-71
2023/03/24 02:16:14;;;;;;;7.50;3.38;;;;;;;12.70;100.00;99627.56;6235389;22;20019;-69
2023/03/24 02:19:15;;;;;;;8.90;3.80;;;;;;;12.69;100.00;99625.84;6210169;22;20110;-69
2023/03/24 02:22:19;;;;;;;5.07;3.40;;;;;;;12.74;100.00;99617.41;6206741;22;20046;-69
2023/03/24 02:24:50;;;;;;;6.45;3.58;;;;;;;12.62;100.00;99603.34;6210961;22;20492;-70
2023/03/24 02:27:35;;;;;;;5.38;3.53;;;;;;;12.69;100.00;99612.47;6235786;22;20016;-69
2023/03/24 02:30:19;;;;;;;9.57;3.42;;;;;;;12.79;100.00;99616.97;6235013;22;20148;-70
2023/03/24 02:33:00;;;;;;;8.77;3.58;;;;;;;12.72;100.00;99608.69;6234940;22;20031;-71
2023/03/24 02:35:25;;;;;;;10.02;3.72;;;;;;;12.80;100.00;99607.97;6234664;22;20016;-70
2023/03/24 02:37:58;;;;;;;6.45;3.92;;;;;;;12.74;100.00;99606.69;6235056;22;20082;-69
2023/03/24 02:40:33;;;;;;;6.00;4.50;;;;;;;12.73;100.00;99601.50;6234698;22;20574;-71
2023/03/24 02:43:33;;;;;;;5.95;3.88;;;;;;;12.72;100.00;99603.34;6234668;22;20420;-70
2023/03/24 02:46:19;;;;;;;5.65;3.60;;;;;;;12.82;100.00;99600.66;6235002;22;20030;-70
2023/03/24 02:49:00;;;;;;;6.72;3.85;;;;;;;12.77;100.00;99592.22;6234108;22;20070;-70
2023/03/24 02:51:43;;;;;;;9.27;3.70;;;;;;;12.71;100.00;99601.66;6235146;22;20015;-69
2023/03/24 02:54:28;;;;;;;10.23;3.83;;;;;;;12.70;100.00;99599.94;6234965;22;20023;-71
2023/03/24 02:57:02;;;;;;;6.00;3.47;;;;;;;12.83;100.00;99599.66;6261804;22;20449;-70
2023/03/24 02:59:52;;;;;;;6.45;3.45;;;;;;;12.74;100.00;99605.88;6261139;22;20019;-69
2023/03/24 03:02:44;;;;;;;6.45;4.40;;;;;;;12.75;100.00;99596.84;6261687;22;20077;-69
2023/03/24 03:05:22;;;;;;;8.10;3.92;;;;;;;12.67;100.00;99600.25;6260295;22;20020;-70
2023/03/24 03:07:50;;;;;;;11.07;4.35;;;;;;;12.73;100.00;99596.16;6235059;22;20140;-70
2023/03/24 03:10:25;;;;;;;8.25;4.93;;;;;;;12.77;100.00;99592.22;6234576;22;20372;-70
2023/03/24 03:12:55;;;;;;;7.50;4.47;;;;;;;12.81;100.00;99601.66;6259698;22;20128;-70
2023/03/24 03:15:25;;;;;;;7.78;4.38;;;;;;;12.73;100.00;99596.16;6261844;22;20527;-70
2023/03/24 03:17:57;;;;;;;7.18;3.85;;;;;;;12.77;100.00;99603.75;6234321;22;20015;-70
2023/03/24 03:20:24;;;;;;;8.63;4.50;;;;;;;12.67;100.00;99601.09;6260281;22;20392;-70
2023/03/24 03:22:56;;;;;;;7.97;4.63;;;;;;;12.72;100.00;99591.81;6259181;22;20065;-72
2023/03/24 03:25:28;;;;;;;9.48;5.45;;;;;;;12.83;100.00;99623.75;6260640;22;20104;-69
2023/03/24 03:27:57;;;;;;;6.20;4.20;;;;;;;12.59;100.00;99619.66;6261806;22;20441;-70
2023/03/24 03:30:33;;;;;;;6.45;4.78;;;;;;;12.74;100.00;99648.66;6234912;22;20029;-69
2023/03/24 03:33:04;;;;;;;6.68;3.80;;;;;;;12.77;100.00;99659.94;6262036;22;20035;-71
2023/03/24 03:35:37;;;;;;;5.87;3.30;;;;;;;12.68;100.00;99663.44;6262241;22;20428;-70
2023/03/24 03:38:21;;;;;;;4.03;2.88;;;;;;;12.75;100.00;99659.25;6262390;22;20023;-70
2023/03/24 03:41:07;;;;;;;4.25;2.15;;;;;;;12.58;100.00;99652.75;6210542;22;20030;-69
2023/03/24 03:43:35;;;;;;;2.53;1.48;;;;;;;12.54;100.00;99647.81;6234660;22;20008;-70
2023/03/24 03:46:05;;;;;;;2.80;1.95;;;;;;;12.46;100.00;99669.06;6260030;22;20031;-70
2023/03/24 03:48:35;;;;;;;1.48;1.25;;;;;;;12.46;100.00;99671.72;6233728;22;20043;-69
2023/03/24 03:51:01;;;;;;;4.47;1.67;;;;;;;12.45;100.00;99676.25;6234033;22;20020;-70
2023/03/24 03:53:36;;;;;;;4.07;1.10;;;;;;;12.38;100.00;99664.38;6234302;22;20022;-71
2023/03/24 03:56:03;;;;;;;2.20;1.15;;;;;;;12.19;100.00;99668.69;6259008;22;20101;-69
2023/03/24 03:58:32;;;;;;;2.03;1.10;;;;;;;12.16;100.00;99687.69;6234121;22;20460;-69
2023/03/24 04:00:58;;;;;;;4.60;1.75;;;;;;;12.03;100.00;99687.06;6233989;22;20022;-69
2023/03/24 04:03:54;;;;;;;1.27;0.80;;;;;;;11.95;100.00;99710.09;6261294;22;20144;-69
2023/03/24 04:06:58;;;;;;;1.52;1.02;;;;;;;11.85;100.00;99734.13;6233699;22;20469;-69
2023/03/24 04:10:04;;;;;;;2.55;0.95;;;;;;;11.78;100.00;99736.41;6259815;22;20622;-70
2023/03/24 04:12:45;;;;;;;6.07;1.38;;;;;;;11.65;100.00;99728.63;6261656;22;20810;-71
2023/03/24 04:15:35;;;;;;;5.32;2.00;;;;;;;11.45;100.00;99736.66;6260572;22;20019;-69
2023/03/24 04:18:52;;;;;;;4.25;1.25;;;;;;;11.46;100.00;99747.19;6233628;22;20024;-69
2023/03/24 04:21:22;;;;;;;4.65;1.25;;;;;;;11.30;100.00;99747.63;6233199;22;20015;-68
2023/03/24 04:23:56;;;;;;;3.70;0.80;;;;;;;11.26;100.00;99748.03;6233729;22;20027;-70
2023/03/24 04:26:40;;;;;;;3.47;1.20;;;;;;;11.16;100.00;99742.59;6233492;22;20427;-70
2023/03/24 04:29:19;;;;;;;6.90;1.40;;;;;;;11.08;100.00;99755.72;6233402;22;20019;-69
2023/03/24 04:32:01;;;;;;;6.10;1.45;;;;;;;10.99;100.00;99760.00;6233837;22;20027;-68
2023/03/24 04:34:32;;;;;;;6.05;1.50;;;;;;;11.02;100.00;99773.09;6261743;22;20074;-70
2023/03/24 04:37:19;;;;;;;8.40;1.67;;;;;;;11.05;100.00;99770.19;6234202;22;20051;-71
2023/03/24 04:39:59;;;;;;;7.25;1.50;;;;;;;11.05;100.00;99777.34;6261577;22;20190;-70
2023/03/24 04:42:36;;;;;;;8.93;1.85;;;;;;;10.98;100.00;99794.81;6233787;22;20016;-68
2023/03/24 04:45:05;;;;;;;8.82;2.65;;;;;;;11.04;100.00;99802.31;6233848;22;20019;-69
2023/03/24 04:47:37;;;;;;;5.90;1.50;;;;;;;11.06;100.00;99808.38;6261387;22;20099;-70
2023/03/24 04:50:35;;;;;;;11.38;1.95;;;;;;;11.12;100.00;99813.19;6260053;22;20105;-70
2023/03/24 04:53:07;;;;;;;6.00;2.15;;;;;;;10.92;100.00;99817.50;6259858;22;20020;-69
2023/03/24 04:55:53;;;;;;;12.13;2.10;;;;;;;11.03;100.00;99824.63;6233712;22;20030;-70
2023/03/24 04:58:32;;;;;;;11.30;2.65;;;;;;;11.04;100.00;99835.16;6234021;22;20063;-68
2023/03/24 05:00:58;;;;;;;8.25;2.90;;;;;;;11.10;100.00;99840.00;6259235;22;20028;-69
2023/03/24 05:03:26;;;;;;;11.10;2.70;;;;;;;11.06;100.00;99837.72;6209181;22;20019;-69
2023/03/24 05:05:52;;;;;;;13.32;3.67;;;;;;;11.04;100.00;99858.31;6261451;22;20019;-70
2023/03/24 05:08:20;;;;;;;13.05;2.80;;;;;;;11.02;100.00;99844.28;6260318;22;20057;-69
2023/03/24 05:10:45;;;;;;;9.15;3.00;;;;;;;10.97;100.00;99841.97;6234940;22;20023;-69
2023/03/24 05:13:12;;;;;;;13.20;3.28;;;;;;;10.84;100.00;99830.59;6234925;22;20043;-69
2023/03/24 05:15:53;;;;;;;10.00;2.30;;;;;;;10.83;100.00;99845.75;6259767;22;20026;-70
2023/03/24 05:18:27;;;;;;;20.10;3.30;;;;;;;10.70;100.00;99844.22;6234456;22;20516;-70
2023/03/24 05:20:55;;;;;;;24.20;3.40;;;;;;;10.75;100.00;99845.53;6235115;22;20044;-69
2023/03/24 05:23:21;;;;;;;16.80;4.20;;;;;;;10.75;100.00;99844.69;6263132;22;20023;-68
2023/03/24 05:25:47;;;;;;;19.15;4.20;;;;;;;10.67;100.00;99853.28;6235912;22;20023;-69
2023/03/24 05:28:14;;;;;;;17.45;3.85;;;;;;;10.53;100.00;99857.03;6235209;22;20077;-70
2023/03/24 05:30:40;;;;;;;15.77;3.05;;;;;;;10.62;100.00;99864.31;6236308;22;20678;-69
2023/03/24 05:33:16;;;;;;;22.90;4.68;;;;;;;10.61;100.00;99865.28;6235303;22;20018;-69
2023/03/24 05:35:41;;;;;;;14.80;3.20;;;;;;;10.63;100.00;99865.16;6260957;22;20019;-69
2023/03/24 05:38:07;;;;;;;21.30;3.70;;;;;;;10.49;100.00;99871.59;6234798;22;20019;-71
2023/03/24 05:40:33;;;;;;;10.82;3.75;;;;;;;10.52;100.00;99890.00;6235022;22;20957;-72
2023/03/24 05:43:26;;;;;;;19.60;4.20;;;;;;;10.48;100.00;99893.88;6235132;22;20051;-70
2023/03/24 05:46:01;;;;;;;21.38;3.65;;;;;;;10.55;100.00;99896.94;6259776;22;20102;-69
2023/03/24 05:48:32;;;;;;;12.50;4.38;;;;;;;10.46;100.00;99914.47;6211087;22;20073;-71
2023/03/24 05:51:15;;;;;;;14.00;4.00;;;;;;;10.58;100.00;99913.50;6213269;22;20443;-71
2023/03/24 05:53:40;;;;;;;16.20;4.40;;;;;;;10.70;100.00;99908.19;6235662;22;20023;-71
2023/03/24 05:56:13;;;;;;;;;;;;;;;10.80;100.00;99914.50;6235705;22;20020;-70
2023/03/24 05:58:57;;;;;;;15.13;4.47;;;;;;;10.63;100.00;99921.16;6234739;22;20620;-70
2023/03/24 06:01:29;;;;;;;;;;;;;;;10.79;100.00;99915.44;6235173;22;20027;-72
2023/03/24 06:04:05;;;;;;;10.88;3.22;;;;;;;10.79;100.00;99924.31;6234720;22;19965;-69
2023/03/24 06:06:31;;;;;;;14.15;3.85;;;;;;;10.73;100.00;99929.28;6234691;22;20524;-70
2023/03/24 06:08:57;;;;;;;25.88;4.85;;;;;;;11.05;100.00;99927.59;6260663;22;20015;-71
2023/03/24 06:11:23;;;;;;;22.10;3.80;;;;;;;10.98;100.00;99922.84;6234314;22;20843;-71
2023/03/24 06:13:59;;;;;;;16.77;4.50;;;;;;;11.07;100.00;99930.13;6234289;22;20022;-71
2023/03/24 06:16:26;;;;;;;17.00;3.72;;;;;;;11.15;100.00;99930.38;6260235;22;20023;-69
2023/03/24 06:18:59;;;;;;;11.38;3.45;;;;;;;11.22;100.00;99934.22;6234692;22;20012;-70
2023/03/24 06:21:49;;;;;;;14.43;3.40;;;;;;;11.19;100.00;99929.13;6235187;22;20586;-72
2023/03/24 06:24:16;;;;;;;15.88;4.35;;;;;;;11.25;100.00;99944.66;6236366;22;20024;-69
2023/03/24 06:26:43;;;;;;;20.92;5.03;;;;;;;11.26;100.00;99943.69;6235308;22;20058;-70
2023/03/24 06:29:11;;;;;;;11.95;3.53;;;;;;;11.42;100.00;99945.94;6234413;22;20804;-70
2023/03/24 06:31:38;;;;;;;15.10;3.90;;;;;;;11.50;100.00;99945.34;6234951;22;20015;-70
2023/03/24 06:34:04;;;;;;;15.00;3.60;;;;;;;11.76;100.00;99938.69;6234429;22;20428;-71
2023/03/24 06:36:30;;;;;;;22.15;5.15;;;;;;;11.85;100.00;99942.47;6234481;22;20019;-70
2023/03/24 06:38:55;;;;;;;27.38;4.10;;;;;;;11.73;100.00;99946.94;6259917;22;20605;-72
2023/03/24 06:41:22;;;;;;;26.70;5.57;;;;;;;11.94;100.00;99947.03;6234348;22;20390;-70
2023/03/24 06:43:52;;;;;;;13.43;3.90;;;;;;;11.95;100.00;99959.44;6233812;22;20026;-70
2023/03/24 06:46:18;;;;;;;12.68;3.38;;;;;;;11.77;100.00;99968.94;6233858;22;20019;-71
2023/03/24 06:48:45;;;;;;;15.98;3.70;;;;;;;11.72;100.00;99965.78;6233964;22;20022;-70
2023/03/24 06:51:11;;;;;;;13.82;3.45;;;;;;;11.53;100.00;99961.94;6234173;22;20035;-70
2023/03/24 06:53:40;;;;;;;20.08;3.90;;;;;;;11.73;100.00;99970.16;6233713;22;20081;-70
2023/03/24 06:56:06;;;;;;;10.60;3.28;;;;;;;11.58;100.00;99969.56;6234419;22;20471;-71
2023/03/24 06:58:41;;;;;;;21.58;4.05;;;;;;;11.63;100.00;99965.56;6236595;22;20099;-70
2023/03/24 07:01:12;;;;;;;22.85;4.40;;;;;;;11.81;100.00;99981.06;6261881;22;20046;-70
2023/03/24 07:04:01;;;;;;;21.55;6.25;;;;;;;11.64;100.00;99983.28;6253726;22;20027;-70
2023/03/24 07:06:37;;;;;;;17.15;3.92;;;;;;;11.51;100.00;99977.25;6271847;22;20023;-71
2023/03/24 07:09:11;;;;;;;8.90;3.72;;;;;;;11.78;100.00;99979.47;6209807;22;20016;-69
2023/03/24 07:11:37;;;;;;;18.95;3.83;;;;;;;11.92;100.00;99987.22;6233746;22;20026;-71
2023/03/24 07:14:02;;;;;;;27.63;4.10;;;;;;;12.08;100.00;99973.44;6257749;22;20633;-70
2023/03/24 07:16:29;;;;;;;20.92;5.30;;;;;;;12.07;100.00;99974.44;6233399;22;20114;-71
2023/03/24 07:19:17;;;;;;;19.73;5.10;;;;;;;12.01;100.00;99974.94;6234028;22;20051;-71
2023/03/24 07:21:48;;;;;;;13.25;3.80;;;;;;;12.51;100.00;99974.34;6233382;22;20073;-71
2023/03/24 07:24:16;;;;;;;24.90;4.20;;;;;;;12.25;100.00;99977.41;6234633;22;20110;-71
2023/03/24 07:26:57;;;;;;;17.27;3.92;;;;;;;12.38;100.00;99987.88;6233929;22;20016;-70
2023/03/24 07:29:23;;;;;;;18.50;5.00;;;;;;;12.34;100.00;99981.94;6233297;22;20019;-69
2023/03/24 07:32:20;;;;;;;13.40;3.45;;;;;;;12.29;100.00;99985.97;6241265;22;20078;-71
2023/03/24 07:34:47;;;;;;;16.92;3.90;;;;;;;12.46;100.00;99982.75;6230727;22;20428;-72
2023/03/24 07:37:12;;;;;;;24.30;4.32;;;;;;;12.43;100.00;99983.84;6258376;22;20011;-72
2023/03/24 07:39:38;;;;;;;21.05;3.80;;;;;;;12.49;100.00;99985.13;6230542;22;20065;-71
2023/03/24 07:42:04;;;;;;;13.52;3.92;;;;;;;12.90;100.00;99981.59;6230593;22;20027;-70
2023/03/24 07:44:49;;;;;;;16.58;5.78;;;;;;;13.10;100.00;99976.31;6258077;22;20062;-71
2023/03/24 07:47:14;;;;;;;20.17;3.80;;;;;;;12.85;100.00;99983.84;6229839;22;20023;-71
2023/03/24 07:49:40;;;;;;;15.20;3.40;;;;;;;13.00;100.00;99978.09;6255670;22;20016;-71
2023/03/24 07:52:08;;;;;;;14.13;4.70;;;;;;;12.97;100.00;99984.59;6231115;22;20015;-71
2023/03/24 07:54:36;;;;;;;23.08;5.95;;;;;;;12.97;100.00;99979.22;6229334;22;20038;-72
2023/03/24 07:57:02;;;;;;;9.68;2.70;;;;;;;13.03;100.00;99978.69;6229949;22;20023;-71
2023/03/24 07:59:28;;;;;;;18.00;4.63;;;;;;;13.45;100.00;99987.47;6230437;22;20023;-70
2023/03/24 08:02:16;;;;;;;21.40;3.53;;;;;;;13.91;100.00;99990.53;6230445;22;20035;-71
2023/03/24 08:04:52;;;;;;;14.10;3.72;;;;;;;14.14;100.00;99989.25;6230786;22;20066;-71
2023/03/24 08:07:52;;;;;;;16.83;5.07;;;;;;;14.04;100.00;99990.25;6254354;22;20028;-72
2023/03/24 08:10:19;;;;;;;17.95;4.53;;;;;;;14.04;100.00;99999.13;6258858;22;20020;-70
2023/03/24 08:12:46;;;;;;;18.52;3.58;;;;;;;13.43;100.00;100000.16;6257993;22;20015;-69
2023/03/24 08:15:12;;;;;;;13.45;3.50;;;;;;;13.57;100.00;100003.44;6258419;22;20020;-70
2023/03/24 08:17:38;;;;;;;14.20;3.05;;;;;;;13.37;100.00;100006.06;6258410;22;20019;-70
2023/03/24 08:20:10;;;;;;;13.60;3.15;;;;;;;13.27;100.00;100007.00;6258270;22;20030;-71
2023/03/24 08:22:36;;;;;;;11.65;3.10;;;;;;;12.87;100.00;100013.13;6258165;22;20019;-70
2023/03/24 08:25:02;;;;;;;11.15;2.97;;;;;;;13.27;100.00;100012.34;6205362;22;20012;-70
2023/03/24 08:27:27;;;;;;;9.82;2.83;;;;;;;13.58;100.00;100003.28;6257598;22;20018;-70
2023/03/24 08:29:52;;;;;;;12.15;3.55;;;;;;;13.44;100.00;100019.75;6257605;22;20074;-72
2023/03/24 08:32:18;;;;;;;19.55;3.50;;;;;;;13.03;100.00;100013.47;6230176;22;20012;-71
2023/03/24 08:34:43;;;;;;;13.43;3.40;;;;;;;13.68;100.00;100017.56;6257547;22;20020;-70
2023/03/24 08:37:10;;;;;;;11.23;3.80;;;;;;;13.46;100.00;100026.66;6257174;22;20023;-71
2023/03/24 08:39:36;;;;;;;22.33;4.25;;;;;;;13.35;100.00;100029.41;6257615;22;20028;-69
2023/03/24 08:42:02;;;;;;;19.52;3.47;;;;;;;13.51;98.66;100038.81;6260324;22;20392;-69
2023/03/24 08:44:27;;;;;;;9.98;3.28;;;;;;;13.82;98.55;100036.91;6260059;22;20012;-70
2023/03/24 08:46:53;;;;;;;17.17;4.85;;;;;;;13.73;99.59;100036.75;6259152;22;20020;-71
2023/03/24 08:49:18;;;;;;;14.60;4.50;;;;;;;13.61;100.00;100035.19;6259745;22;20026;-70
2023/03/24 08:51:44;;;;;;;10.30;3.05;;;;;;;14.14;100.00;100039.34;6259946;22;20015;-71
2023/03/24 08:54:11;;;;;;;13.85;2.80;;;;;;;14.34;97.08;100043.75;6231860;22;20019;-70
2023/03/24 08:56:37;;;;;;;11.90;3.08;;;;;;;14.17;99.01;100042.63;6259696;22;20020;-70
2023/03/24 08:59:04;;;;;;;11.00;3.40;;;;;;;13.73;99.67;100043.94;6259925;22;20686;-70
2023/03/24 09:01:30;;;;;;;9.52;3.70;;;;;;;13.71;97.29;100041.41;6259336;22;20011;-70
2023/03/24 09:03:56;;;;;;;16.33;3.65;;;;;;;13.73;97.25;100047.47;6257120;22;20012;-69
2023/03/24 09:06:22;;;;;;;24.45;5.18;;;;;;;14.02;97.76;100051.22;6259674;22;20027;-69
2023/03/24 09:08:47;;;;;;;16.92;3.42;;;;;;;13.88;98.28;100063.16;6232000;22;20077;-71
2023/03/24 09:11:18;;;;;;;16.17;3.20;;;;;;;13.86;94.83;100063.31;6259062;22;20016;-70
2023/03/24 09:13:44;;;;;;;16.13;3.83;;;;;;;13.93;95.15;100059.09;6258650;22;20030;-71
2023/03/24 09:16:10;;;;;;;17.42;3.88;;;;;;;14.20;93.07;100052.19;6259433;22;20012;-69
2023/03/24 09:18:36;;;;;;;12.75;2.85;;;;;;;14.37;87.73;100059.56;6258972;22;20016;-72
2023/03/24 09:21:02;;;;;;;14.43;3.13;;;;;;;14.81;85.22;100048.38;6260106;22;20019;-71
2023/03/24 09:23:30;;;;;;;12.80;3.35;;;;;;;15.27;84.10;100052.94;6259313;22;20376;-69
2023/03/24 09:25:56;;;;;;;12.85;2.97;;;;;;;15.60;83.16;100054.22;6206779;22;20535;-71
2023/03/24 09:28:22;;;;;;;15.32;4.20;;;;;;;15.12;83.87;100046.38;6232298;22;20026;-71
2023/03/24 09:30:48;;;;;;;11.27;3.03;;;;;;;14.86;84.95;100056.84;6261257;22;20026;-70
2023/03/24 09:33:14;;;;;;;13.30;3.85;;;;;;;14.80;85.94;100065.50;6261649;22;20019;-70
2023/03/24 09:35:40;;;;;;;9.30;2.80;;;;;;;14.35;85.11;100060.69;6260604;22;20020;-70
2023/03/24 09:38:05;;;;;;;14.50;3.40;;;;;;;14.25;85.83;100071.41;6260838;22;20107;-71
2023/03/24 09:40:36;;;;;;;7.65;3.15;;;;;;;14.77;85.63;100055.91;6261228;22;20011;-71
2023/03/24 09:43:24;;;;;;;14.40;3.17;;;;;;;14.52;84.77;100061.84;6260063;22;20022;-69
2023/03/24 09:45:56;;;;;;;13.20;3.10;;;;;;;14.57;85.93;100071.16;6260335;22;20019;-71
2023/03/24 09:48:34;;;;;;;8.20;2.95;;;;;;;14.26;85.63;100078.47;6208883;22;20019;-70
2023/03/24 09:51:11;;;;;;;8.88;3.22;;;;;;;14.02;87.47;100078.84;6232948;22;20020;-71
2023/03/24 09:53:40;;;;;;;14.68;3.63;;;;;;;13.85;89.31;100083.03;6233891;22;20070;-70
2023/03/24 09:56:19;;;;;;;13.82;3.50;;;;;;;13.62;90.79;100089.59;6207771;22;20050;-71
2023/03/24 09:58:50;;;;;;;11.50;2.90;;;;;;;13.97;90.38;100097.19;6233562;22;20070;-71
2023/03/24 10:01:16;;;;;;;11.07;3.05;;;;;;;14.39;89.62;100097.81;6260826;22;20092;-70
2023/03/24 10:03:43;;;;;;;17.50;2.70;;;;;;;14.14;88.78;100101.88;6233338;22;20131;-70
2023/03/24 10:06:22;;;;;;;11.45;2.63;;;;;;;14.11;88.70;100093.28;6232788;22;20073;-70
2023/03/24 10:09:03;;;;;;;17.15;4.28;;;;;;;14.55;86.20;100094.59;6207575;22;20016;-71
2023/03/24 10:11:41;;;;;;;12.05;3.30;;;;;;;14.51;85.94;100098.56;6208217;22;20091;-71
2023/03/24 10:14:20;;;;;;;6.00;3.15;;;;;;;14.36;88.74;100094.56;6233144;22;20015;-70
2023/03/24 10:16:52;;;;;;;6.45;2.80;;;;;;;14.14;89.70;100092.97;6207855;22;20024;-71
2023/03/24 10:19:23;;;;;;;11.38;5.22;;;;;;;14.16;91.27;100105.28;6260472;22;20016;-69
2023/03/24 10:22:18;;;;;;;16.57;3.93;;;;;;;14.19;90.01;100104.13;6259907;22;20387;-71
2023/03/24 10:25:11;;;;;;;16.83;4.20;;;;;;;14.49;85.07;100103.22;6232473;22;20851;-71
2023/03/24 10:27:52;;;;;;;6.50;2.50;;;;;;;15.39;83.23;100096.59;6206995;22;20398;-70
2023/03/24 10:30:28;;;;;;;11.60;2.95;;;;;;;15.40;81.65;100098.28;6232943;22;20015;-71
2023/03/24 10:32:55;;;;;;;10.02;3.22;;;;;;;15.95;82.00;100115.31;6232188;22;20035;-71
2023/03/24 10:35:26;;;;;;;6.05;2.95;;;;;;;15.83;78.02;100113.00;6259235;22;20020;-73
2023/03/24 10:37:56;;;;;;;11.32;3.17;;;;;;;15.69;76.41;100106.28;6232592;22;20023;-69
2023/03/24 10:40:29;;;;;;;10.10;2.50;;;;;;;14.79;77.78;100126.38;6232816;22;20019;-70
2023/03/24 10:42:57;;;;;;;8.52;2.53;;;;;;;14.92;79.30;100115.38;6259478;22;20018;-73
2023/03/24 10:45:31;;;;;;;9.57;2.63;;;;;;;14.94;81.13;100119.59;6259867;22;20054;-70
2023/03/24 10:48:00;;;;;;;13.77;3.00;;;;;;;15.43;78.09;100114.13;6232431;22;20043;-70
2023/03/24 10:50:28;;;;;;;13.32;2.80;;;;;;;15.71;77.08;100118.59;6259883;22;20425;-70
2023/03/24 10:52:56;;;;;;;12.27;2.50;;;;;;;15.88;76.93;100124.16;6259896;22;20026;-71
2023/03/24 10:55:34;;;;;;;20.10;3.33;;;;;;;15.32;77.45;100125.03;6259927;22;20015;-70
2023/03/24 10:58:00;;;;;;;7.47;2.53;;;;;;;16.20;74.40;100121.00;6207668;22;20020;-71
2023/03/24 11:00:28;;;;;;;6.55;3.05;;;;;;;16.85;70.10;100110.91;6208064;22;20452;-71
2023/03/24 11:03:07;;;;;;;8.65;3.20;;;;;;;16.66;69.49;100119.09;6260289;22;20019;-70
2023/03/24 11:05:36;;;;;;;11.95;2.38;;;;;;;16.54;70.46;100119.34;6225444;22;20077;-70
2023/03/24 11:08:20;;;;;;;10.20;2.75;;;;;;;15.73;71.44;100111.19;6207302;22;20015;-70
2023/03/24 11:10:45;;;;;;;4.43;2.17;;;;;;;14.81;75.66;100128.91;6260374;22;20012;-70
2023/03/24 11:13:32;;;;;;;14.52;2.60;;;;;;;14.40;79.49;100136.22;6259707;22;20097;-70
2023/03/24 11:16:06;;;;;;;15.80;2.85;;;;;;;14.20;88.70;100141.53;6258963;22;20085;-71
2023/03/24 11:18:31;;;;;;;15.57;3.92;;;;;;;13.84;100.00;100152.84;6260785;22;20012;-70
2023/03/24 11:21:02;;;;;;;9.32;3.15;;;;;;;13.77;100.00;100152.56;6260811;22;20012;-70
2023/03/24 11:23:37;;;;;;;8.25;2.92;;;;;;;14.99;100.00;100140.63;6260609;22;20765;-70
2023/03/24 11:26:18;;;;;;;13.52;3.20;;;;;;;15.00;99.17;100145.00;6231915;22;20014;-72
2023/03/24 11:28:57;;;;;;;13.02;3.58;;;;;;;15.51;100.00;100162.59;6231910;22;20019;-69
2023/03/24 11:31:25;;;;;;;9.25;2.85;;;;;;;14.69;95.50;100145.16;6258529;22;20015;-70
2023/03/24 11:34:06;;;;;;;6.38;2.80;;;;;;;14.50;97.03;100139.78;6258600;22;20098;-71
2023/03/24 11:36:31;;;;;;;7.28;2.58;;;;;;;15.10;92.43;100147.69;6257016;22;20031;-70
2023/03/24 11:39:27;;;;;;;10.50;2.63;;;;;;;15.15;91.38;100145.41;6258856;22;20015;-70
2023/03/24 11:42:11;;;;;;;7.53;2.17;;;;;;;15.59;86.76;100141.22;6246294;22;20019;-71
2023/03/24 11:44:36;;;;;;;9.70;2.55;;;;;;;15.50;85.57;100152.84;6257497;22;20016;-70
2023/03/24 11:47:11;;;;;;;9.45;3.20;;;;;;;14.42;86.88;100164.59;6260003;22;20512;-69